createdAt,value
2022-07-26T00:03:22.513Z,4.47
2022-07-26T00:08:28.833Z,4.40
2022-07-26T00:13:34.729Z,4.63
2022-07-26T00:18:40.553Z,4.40
2022-07-26T00:23:46.386Z,5.87
2022-07-26T00:28:51.867Z,4.30
2022-07-26T00:33:57.332Z,4.57
2022-07-26T00:39:03.174Z,4.97
2022-07-26T00:44:08.703Z,4.83
2022-07-26T00:49:14.590Z,4.47
2022-07-26T00:54:20.250Z,4.30
2022-07-26T00:59:25.726Z,4.23
2022-07-26T01:04:32.098Z,4.23
2022-07-26T01:09:38.198Z,4.40
2022-07-26T01:14:47.003Z,4.53
2022-07-26T01:19:52.457Z,4.37
2022-07-26T01:24:57.968Z,4.80
2022-07-26T01:30:03.422Z,4.70
2022-07-26T01:35:09.262Z,4.77
2022-07-26T01:40:15.562Z,5.13
2022-07-26T01:45:21.243Z,4.77
2022-07-26T01:50:26.821Z,5.80
2022-07-26T01:55:32.565Z,5.00
2022-07-26T02:00:38.356Z,4.77
2022-07-26T02:05:43.896Z,4.17
2022-07-26T02:11:03.667Z,4.07
2022-07-26T02:16:11.797Z,5.10
2022-07-26T02:21:17.308Z,4.70
2022-07-26T02:26:23.337Z,5.00
2022-07-26T02:31:32.382Z,5.20
2022-07-26T02:36:36.169Z,6.70
2022-07-26T02:41:42.065Z,5.50
2022-07-26T02:46:47.609Z,6.20
2022-07-26T02:51:53.277Z,6.47
2022-07-26T02:56:58.821Z,5.67
2022-07-26T03:02:04.391Z,5.47
2022-07-26T03:07:09.922Z,5.10
2022-07-26T03:12:15.345Z,5.37
2022-07-26T03:17:21.024Z,5.87
2022-07-26T03:22:26.458Z,5.27
2022-07-26T03:27:31.956Z,4.23
2022-07-26T03:32:37.413Z,5.37
2022-07-26T03:37:45.640Z,5.00
2022-07-26T03:42:50.283Z,4.70
2022-07-26T03:47:55.793Z,4.70
2022-07-26T03:53:01.221Z,5.07
2022-07-26T03:58:06.715Z,4.70
2022-07-26T04:03:12.159Z,4.90
2022-07-26T04:08:18.240Z,5.20
2022-07-26T04:13:24.200Z,4.93
2022-07-26T04:18:29.636Z,4.10
2022-07-26T04:23:35.075Z,4.57
2022-07-26T04:28:41.172Z,5.00
2022-07-26T04:33:46.916Z,5.17
2022-07-26T04:38:52.338Z,5.63
2022-07-26T04:43:58.205Z,5.20
2022-07-26T04:49:03.721Z,5.37
2022-07-26T04:54:09.732Z,4.83
2022-07-26T04:59:19.834Z,5.47
2022-07-26T05:04:22.846Z,5.53
2022-07-26T05:09:28.355Z,5.53
2022-07-26T05:14:33.869Z,6.13
2022-07-26T05:19:39.545Z,6.20
2022-07-26T05:24:45.130Z,6.67
2022-07-26T05:29:50.565Z,6.33
2022-07-26T05:34:56.200Z,7.33
2022-07-26T05:40:01.639Z,7.10
2022-07-26T05:45:08.124Z,7.73
2022-07-26T05:50:13.699Z,7.10
2022-07-26T05:55:19.150Z,7.10
2022-07-26T06:00:24.594Z,6.43
2022-07-26T06:05:30.083Z,6.90
2022-07-26T06:10:35.602Z,5.83
2022-07-26T06:15:42.387Z,6.57
2022-07-26T06:20:48.956Z,6.97
2022-07-26T06:25:54.386Z,6.03
2022-07-26T06:30:59.925Z,6.17
2022-07-26T06:36:06.123Z,5.63
2022-07-26T06:41:11.562Z,5.60
2022-07-26T06:46:17.237Z,5.83
2022-07-26T06:51:23.662Z,4.67
2022-07-26T06:56:29.100Z,4.77
2022-07-26T07:01:57.032Z,4.10
2022-07-26T07:06:41.745Z,4.77
2022-07-26T07:11:49.066Z,4.23
2022-07-26T07:16:56.760Z,3.90
2022-07-26T07:22:02.312Z,4.60
2022-07-26T07:27:07.823Z,4.23
2022-07-26T07:32:18.153Z,4.03
2022-07-26T07:37:21.799Z,4.30
2022-07-26T07:42:27.357Z,4.00
2022-07-26T07:47:34.917Z,3.90
2022-07-26T07:52:41.070Z,3.97
2022-07-26T07:57:46.556Z,3.13
2022-07-26T08:02:52.339Z,3.30
2022-07-26T08:07:57.852Z,3.00
2022-07-26T08:13:03.423Z,3.00
2022-07-26T08:18:08.941Z,2.40
2022-07-26T08:23:16.311Z,2.43
2022-07-26T08:28:45.021Z,3.00
2022-07-26T08:33:29.166Z,2.83
2022-07-26T08:38:34.678Z,2.30
2022-07-26T08:43:51.212Z,2.90
2022-07-26T08:48:47.419Z,2.50
2022-07-26T08:54:04.906Z,2.20
2022-07-26T08:59:20.599Z,2.40
2022-07-26T09:04:34.542Z,2.57
2022-07-26T09:09:42.503Z,2.20
2022-07-26T09:14:49.250Z,2.10
2022-07-26T09:20:15.861Z,2.10
2022-07-26T09:25:23.042Z,2.60
2022-07-26T09:30:31.299Z,2.23
2022-07-26T09:35:51.400Z,2.23
2022-07-26T09:40:50.964Z,2.00
2022-07-26T09:46:05.492Z,2.30
2022-07-26T09:51:12.037Z,2.27
2022-07-26T09:56:19.170Z,2.20
2022-07-26T10:01:24.653Z,2.10
2022-07-26T10:06:30.676Z,1.83
2022-07-26T10:11:57.181Z,2.50
2022-07-26T10:17:04.808Z,2.27
2022-07-26T10:22:26.092Z,2.13
2022-07-26T10:27:46.261Z,2.30
2022-07-26T10:33:03.527Z,2.10
2022-07-26T10:38:10.774Z,2.20
2022-07-26T10:48:27.355Z,2.20
2022-07-26T10:53:33.724Z,2.87
2022-07-26T10:58:44.232Z,2.13
2022-07-26T11:03:49.892Z,2.10
2022-07-26T11:08:56.076Z,2.40
2022-07-26T11:14:14.203Z,2.23
2022-07-26T11:19:21.670Z,2.07
2022-07-26T11:24:27.551Z,2.10
2022-07-26T11:29:38.112Z,2.20
2022-07-26T11:34:42.579Z,2.93
2022-07-26T11:39:48.759Z,1.97
2022-07-26T11:45:06.186Z,1.80
2022-07-26T11:50:18.700Z,1.70
2022-07-26T11:55:27.428Z,1.67
2022-07-26T12:00:33.146Z,1.73
2022-07-26T12:05:38.739Z,1.67
2022-07-26T12:10:44.420Z,2.00
2022-07-26T12:15:52.873Z,1.47
2022-07-26T12:21:08.858Z,1.40
2022-07-26T12:26:30.847Z,1.10
2022-07-26T12:31:36.477Z,1.30
2022-07-26T12:36:42.015Z,1.40
2022-07-26T12:41:49.146Z,1.20
2022-07-26T12:46:55.108Z,1.30
2022-07-26T12:52:00.546Z,1.30
2022-07-26T12:57:06.459Z,1.30
2022-07-26T13:02:12.304Z,1.23
2022-07-26T13:07:19.398Z,1.50
2022-07-26T13:12:25.068Z,1.50
2022-07-26T13:17:30.498Z,1.10
2022-07-26T13:22:36.956Z,1.13
2022-07-26T13:27:44.817Z,0.80
2022-07-26T13:32:49.766Z,1.37
2022-07-26T13:37:55.198Z,1.27
2022-07-26T13:43:00.859Z,1.17
2022-07-26T13:48:07.092Z,1.10
2022-07-26T13:53:12.635Z,1.10
2022-07-26T13:58:19.968Z,1.17
2022-07-26T14:03:26.233Z,1.30
2022-07-26T14:08:31.739Z,1.40
2022-07-26T14:13:37.189Z,1.23
2022-07-26T14:18:42.614Z,1.20
2022-07-26T14:23:48.094Z,1.60
2022-07-26T14:28:54.370Z,1.60
2022-07-26T14:34:00.066Z,1.30
2022-07-26T14:39:06.236Z,1.40
2022-07-26T14:44:12.278Z,1.33
2022-07-26T14:49:18.099Z,0.93
2022-07-26T14:54:23.548Z,0.80
2022-07-26T14:59:29.584Z,1.30
2022-07-26T15:04:35.107Z,0.80
2022-07-26T15:09:40.689Z,1.10
2022-07-26T15:14:46.209Z,1.57
2022-07-26T15:19:51.711Z,1.00
2022-07-26T15:24:57.184Z,0.97
2022-07-26T15:30:06.064Z,0.97
2022-07-26T15:35:14.486Z,0.90
2022-07-26T15:40:20.850Z,0.90
2022-07-26T15:45:26.944Z,0.90
2022-07-26T15:50:33.106Z,0.90
2022-07-26T15:55:38.620Z,0.60
2022-07-26T16:00:44.366Z,0.77
2022-07-26T16:05:49.902Z,0.70
2022-07-26T16:10:55.474Z,1.10
2022-07-26T16:16:01.119Z,0.63
2022-07-26T16:21:07.331Z,0.80
2022-07-26T16:26:12.776Z,0.53
2022-07-26T16:31:18.367Z,0.50
2022-07-26T16:36:24.049Z,0.60
2022-07-26T16:41:32.477Z,0.70
2022-07-26T16:46:38.095Z,0.70
2022-07-26T16:51:43.679Z,0.63
2022-07-26T16:56:49.190Z,0.70
2022-07-26T17:01:55.422Z,0.63
2022-07-26T17:07:23.986Z,0.70
2022-07-26T17:12:09.347Z,0.63
2022-07-26T17:17:14.784Z,0.90
2022-07-26T17:22:21.608Z,0.90
2022-07-26T17:27:27.041Z,0.80
2022-07-26T17:32:32.566Z,0.82
2022-07-26T17:37:38.187Z,0.90
2022-07-26T17:42:45.837Z,0.60
2022-07-26T17:47:51.390Z,1.00
2022-07-26T17:52:57.165Z,0.80
2022-07-26T17:58:31.761Z,0.77
2022-07-26T18:03:37.374Z,0.50
2022-07-26T18:08:42.932Z,0.70
2022-07-26T18:13:48.500Z,0.90
2022-07-26T18:18:54.303Z,0.73
2022-07-26T18:24:15.908Z,0.90
2022-07-26T18:29:07.815Z,0.87
2022-07-26T18:34:13.996Z,1.17
2022-07-26T18:39:19.613Z,0.90
2022-07-26T18:44:25.185Z,1.00
2022-07-26T18:49:32.237Z,1.00
2022-07-26T18:54:38.751Z,0.87
2022-07-26T18:59:44.229Z,1.53
2022-07-26T19:04:49.781Z,1.10
2022-07-26T19:09:58.652Z,1.00
2022-07-26T19:15:03.489Z,1.43
2022-07-26T19:20:10.830Z,1.20
2022-07-26T19:25:16.497Z,1.10
2022-07-26T19:30:22.015Z,1.53
2022-07-26T19:35:29.835Z,1.20
2022-07-26T19:40:35.525Z,1.30
2022-07-26T19:45:41.409Z,1.40
2022-07-26T19:50:47.135Z,1.20
2022-07-26T19:55:52.703Z,1.00
2022-07-26T20:00:58.260Z,1.50
2022-07-26T20:06:03.923Z,1.60
2022-07-26T20:11:09.614Z,1.77
2022-07-26T20:16:15.453Z,1.57
2022-07-26T20:21:21.088Z,1.73
2022-07-26T20:26:26.604Z,1.30
2022-07-26T20:31:32.173Z,1.30
2022-07-26T20:36:37.957Z,1.50
2022-07-26T20:41:43.635Z,1.53
2022-07-26T20:46:49.157Z,1.60
2022-07-26T20:51:54.833Z,1.03
2022-07-26T20:57:00.342Z,1.37
2022-07-26T21:02:07.849Z,1.03
2022-07-26T21:07:14.800Z,1.87
2022-07-26T21:12:21.648Z,1.47
2022-07-26T21:17:32.672Z,1.50
2022-07-26T21:22:34.818Z,1.20
2022-07-26T21:27:40.535Z,1.30
2022-07-26T21:32:46.096Z,1.10
2022-07-26T21:37:51.770Z,1.23
2022-07-26T21:42:57.235Z,1.40
2022-07-26T21:48:03.715Z,1.37
2022-07-26T21:53:09.232Z,1.50
2022-07-26T21:58:14.742Z,1.53
2022-07-26T22:03:20.225Z,1.50
2022-07-26T22:08:26.288Z,1.20
2022-07-26T22:13:32.464Z,1.53
2022-07-26T22:18:38.236Z,1.50
2022-07-26T22:23:43.844Z,1.57
2022-07-26T22:28:49.457Z,1.37
2022-07-26T22:33:55.031Z,1.20
2022-07-26T22:39:00.594Z,1.37
2022-07-26T22:44:06.348Z,1.47
2022-07-26T22:49:14.901Z,1.47
2022-07-26T22:54:19.129Z,1.30
2022-07-26T22:59:25.619Z,1.40
2022-07-26T23:04:31.183Z,1.23
2022-07-26T23:09:36.760Z,1.20
2022-07-26T23:14:42.329Z,1.20
2022-07-26T23:19:47.875Z,1.30
2022-07-26T23:24:53.442Z,1.17
2022-07-26T23:29:58.958Z,1.27
2022-07-26T23:35:04.723Z,1.67
2022-07-26T23:40:11.411Z,1.40
2022-07-26T23:45:16.924Z,1.23
2022-07-26T23:50:24.842Z,1.17
2022-07-26T23:55:35.590Z,1.37
